F/V St-alour — FGTB — position and weather

sailwx.info

Track history (hours):
 
Tides and Currents Weather Stations Pressure Air Temp Water Temp Dewpoint Dewpoint Depression Visibility Wind Speed Wind Dir Waves Ship Positions

F/V St-alour

Last reported at 2018-Feb-16 18:10 UTC. Time now 2018-Feb-19 22:19 UTC.
Position N 47°40' W 005°15'.

Length 24 m.

Type: Fishing. MMSI: 227397000.

Date/timePositionNaut miles runAvg speedWind from/ knotsBaromVisibWave heightAir tempDewpointWater temp
2018-Feb-16 18:10N 47°40' W 005°15'6 9.1
2018-Feb-16 17:32N 47°41' W 005°06'0 9.0
2018-Feb-16 17:30N 47°41' W 005°06'4 9.0
2018-Feb-16 17:00N 47°41' W 004°59'5 9.1
2018-Feb-16 16:30N 47°42' W 004°52'5 9.1
2018-Feb-16 15:54N 47°42' W 004°44'4 9.2
2018-Feb-16 15:28N 47°43' W 004°38'5 9.3
2018-Feb-16 14:56N 47°44' W 004°31'4 9.4
2018-Feb-16 14:30N 47°44' W 004°25'5 9.5
2018-Feb-16 13:59N 47°45' W 004°18'5 9.4
2018-Feb-16 13:29N 47°46' W 004°11'4 8.1
2018-Feb-16 13:00N 47°49' W 004°08'2 0.1
2018-Feb-15 08:39N 47°50' W 004°10'  
2018-Feb-10 16:19N 47°50' W 004°09'3 8.0
2018-Feb-10 15:54N 47°47' W 004°09'6 9.3
2018-Feb-10 15:16N 47°44' W 004°17'310.1
2018-Feb-10 14:58N 47°43' W 004°21'  
Track history (hours):
 
Tides and Currents Weather Stations Pressure Air Temp Water Temp Dewpoint Dewpoint Depression Visibility Wind Speed Wind Dir Waves Ship Positions

F/V St-alour

Last reported at 2018-Feb-16 18:10 UTC. Time now 2018-Feb-19 22:19 UTC.
Position N 47°40' W 005°15'.

Length 24 m.

Type: Fishing. MMSI: 227397000.

Date/timePositionNaut miles runAvg speedWind from/ knotsBaromVisibWave heightAir tempDewpointWater temp
2018-Feb-16 18:10N 47°40' W 005°15'6 9.1
2018-Feb-16 17:32N 47°41' W 005°06'0 9.0
2018-Feb-16 17:30N 47°41' W 005°06'4 9.0
2018-Feb-16 17:00N 47°41' W 004°59'5 9.1
2018-Feb-16 16:30N 47°42' W 004°52'5 9.1
2018-Feb-16 15:54N 47°42' W 004°44'4 9.2
2018-Feb-16 15:28N 47°43' W 004°38'5 9.3
2018-Feb-16 14:56N 47°44' W 004°31'4 9.4
2018-Feb-16 14:30N 47°44' W 004°25'5 9.5
2018-Feb-16 13:59N 47°45' W 004°18'5 9.4
2018-Feb-16 13:29N 47°46' W 004°11'4 8.1
2018-Feb-16 13:00N 47°49' W 004°08'2 0.1
2018-Feb-15 08:39N 47°50' W 004°10'  
2018-Feb-10 16:19N 47°50' W 004°09'3 8.0
2018-Feb-10 15:54N 47°47' W 004°09'6 9.3
2018-Feb-10 15:16N 47°44' W 004°17'310.1
2018-Feb-10 14:58N 47°43' W 004°21'  

Dump ship's entire track history